KAL1422 RPVM-RKSI
Flight info
| Callsign | KAL1422 |
|---|---|
| Flight time | N/A |
| Altitude | 35000 |
| Route | POXOS G578 GURAG DCT RUSAR Y579 RUGMA Y572 CJU Y722 OLMEN |
| Aircraft | A20N/M-V/N |
Departure
| Time | 2026-05-07 10:43 |
|---|---|
| Airport | Mactan Cebu International Airport (RPVM) |
Arrival
| Time | N/A |
|---|---|
| Airport | Incheon International Airport (RKSI) |
| Time | Latitude | Longitude | Altitude | Speed | Heading |
|---|---|---|---|---|---|
| 2026-05-07 10:19 | 10.31343 | 123.97773 | 36 ft | 0 kts | 310° |
| 2026-05-07 10:27 | 10.31335 | 123.97784 | 38 ft | 2 kts | 302° |
| 2026-05-07 10:28 | 10.31326 | 123.97801 | 36 ft | 2 kts | 291° |
| 2026-05-07 10:28 | 10.31318 | 123.97820 | 35 ft | 2 kts | 298° |
| 2026-05-07 10:28 | 10.31309 | 123.97837 | 36 ft | 3 kts | 285° |
| 2026-05-07 10:28 | 10.31307 | 123.97856 | 38 ft | 3 kts | 254° |
| 2026-05-07 10:29 | 10.31313 | 123.97871 | 34 ft | 1 kts | 227° |
| 2026-05-07 10:29 | 10.31315 | 123.97872 | 34 ft | 1 kts | 226° |
| 2026-05-07 10:37 | 10.31314 | 123.97872 | 34 ft | 1 kts | 226° |
| 2026-05-07 10:37 | 10.31283 | 123.97844 | 38 ft | 8 kts | 207° |
| 2026-05-07 10:37 | 10.31273 | 123.97859 | 38 ft | 8 kts | 88° |
| 2026-05-07 10:38 | 10.31267 | 123.97937 | 36 ft | 13 kts | 121° |
| 2026-05-07 10:38 | 10.31191 | 123.97974 | 38 ft | 13 kts | 206° |
| 2026-05-07 10:38 | 10.31114 | 123.97899 | 38 ft | 20 kts | 221° |
| 2026-05-07 10:38 | 10.30973 | 123.97770 | 36 ft | 31 kts | 222° |
| 2026-05-07 10:39 | 10.30823 | 123.97605 | 36 ft | 33 kts | 227° |
| 2026-05-07 10:39 | 10.30656 | 123.97441 | 39 ft | 34 kts | 225° |
| 2026-05-07 10:39 | 10.30488 | 123.97271 | 37 ft | 35 kts | 225° |
| 2026-05-07 10:39 | 10.30310 | 123.97089 | 38 ft | 37 kts | 225° |
| 2026-05-07 10:40 | 10.30127 | 123.96910 | 36 ft | 37 kts | 224° |
| 2026-05-07 10:40 | 10.29951 | 123.96727 | 38 ft | 30 kts | 224° |
| 2026-05-07 10:40 | 10.29854 | 123.96743 | 37 ft | 16 kts | 139° |
| 2026-05-07 10:40 | 10.29750 | 123.96838 | 34 ft | 24 kts | 130° |
| 2026-05-07 10:41 | 10.29723 | 123.96904 | 33 ft | 8 kts | 72° |
| 2026-05-07 10:41 | 10.29751 | 123.96935 | 33 ft | 0 kts | 46° |
| 2026-05-07 10:42 | 10.29833 | 123.97017 | 32 ft | 56 kts | 45° |
| 2026-05-07 10:42 | 10.30326 | 123.97510 | 37 ft | 138 kts | 44° |
| 2026-05-07 10:42 | 10.31118 | 123.98341 | 376 ft | 175 kts | 45° |
| 2026-05-07 10:43 | 10.31949 | 123.99261 | 812 ft | 173 kts | 46° |
| 2026-05-07 10:43 | 10.32809 | 124.00174 | 886 ft | 189 kts | 45° |
| 2026-05-07 10:43 | 10.33726 | 124.01144 | 1129 ft | 203 kts | 46° |
| 2026-05-07 10:43 | 10.34762 | 124.02244 | 1294 ft | 218 kts | 46° |
| 2026-05-07 10:44 | 10.35822 | 124.03363 | 1722 ft | 226 kts | 46° |
| 2026-05-07 10:44 | 10.36928 | 124.04541 | 2098 ft | 232 kts | 47° |
| 2026-05-07 10:44 | 10.38019 | 124.05767 | 2595 ft | 235 kts | 49° |
| 2026-05-07 10:44 | 10.39137 | 124.07049 | 2795 ft | 250 kts | 50° |
| 2026-05-07 10:45 | 10.40346 | 124.08429 | 3438 ft | 265 kts | 50° |
| 2026-05-07 10:45 | 10.41534 | 124.09774 | 4718 ft | 257 kts | 50° |
| 2026-05-07 10:45 | 10.42736 | 124.11135 | 5700 ft | 261 kts | 51° |
| 2026-05-07 10:45 | 10.43956 | 124.12520 | 6628 ft | 265 kts | 51° |
| 2026-05-07 10:46 | 10.45196 | 124.13931 | 7523 ft | 269 kts | 51° |
| 2026-05-07 10:46 | 10.46452 | 124.15359 | 8414 ft | 273 kts | 51° |
| 2026-05-07 10:46 | 10.47810 | 124.16732 | 9306 ft | 279 kts | 43° |
| 2026-05-07 10:46 | 10.49315 | 124.18007 | 10127 ft | 284 kts | 43° |
| 2026-05-07 10:47 | 10.50895 | 124.19341 | 10500 ft | 307 kts | 42° |
| 2026-05-07 10:47 | 10.52601 | 124.20781 | 10763 ft | 329 kts | 42° |
| 2026-05-07 10:47 | 10.54394 | 124.22288 | 11389 ft | 337 kts | 42° |
| 2026-05-07 10:47 | 10.56192 | 124.23796 | 12080 ft | 344 kts | 42° |
| 2026-05-07 10:48 | 10.58092 | 124.25393 | 12306 ft | 364 kts | 41° |
| 2026-05-07 10:48 | 10.60097 | 124.27081 | 12493 ft | 383 kts | 41° |
| 2026-05-07 10:48 | 10.62193 | 124.28845 | 12683 ft | 399 kts | 41° |
| 2026-05-07 10:48 | 10.64362 | 124.30669 | 13123 ft | 407 kts | 41° |
| 2026-05-07 10:49 | 10.66550 | 124.32508 | 13735 ft | 410 kts | 41° |
| 2026-05-07 10:49 | 10.68759 | 124.34366 | 14246 ft | 413 kts | 41° |
| 2026-05-07 10:49 | 10.70989 | 124.36243 | 14759 ft | 417 kts | 41° |
| 2026-05-07 10:49 | 10.73230 | 124.38132 | 15250 ft | 420 kts | 41° |
| 2026-05-07 10:50 | 10.75466 | 124.40019 | 15741 ft | 423 kts | 41° |
| 2026-05-07 10:50 | 10.77745 | 124.41942 | 16216 ft | 427 kts | 41° |
| 2026-05-07 10:50 | 10.80041 | 124.43878 | 16681 ft | 430 kts | 41° |
| 2026-05-07 10:50 | 10.82360 | 124.45833 | 17139 ft | 434 kts | 41° |
| 2026-05-07 10:51 | 10.84696 | 124.47801 | 17586 ft | 437 kts | 41° |
| 2026-05-07 10:51 | 10.87045 | 124.49781 | 18010 ft | 441 kts | 41° |
| 2026-05-07 10:51 | 10.89393 | 124.51757 | 18393 ft | 444 kts | 40° |
| 2026-05-07 10:51 | 10.91965 | 124.53514 | 18783 ft | 448 kts | 31° |
| 2026-05-07 10:52 | 10.94690 | 124.55077 | 19147 ft | 451 kts | 31° |
| 2026-05-07 10:52 | 10.97430 | 124.56648 | 19510 ft | 453 kts | 31° |
| 2026-05-07 10:52 | 11.00195 | 124.58225 | 19864 ft | 456 kts | 31° |
| 2026-05-07 10:52 | 11.02979 | 124.59806 | 20217 ft | 459 kts | 30° |
| 2026-05-07 10:53 | 11.05779 | 124.61387 | 20572 ft | 462 kts | 30° |
| 2026-05-07 10:53 | 11.08636 | 124.62929 | 20897 ft | 465 kts | 26° |
| 2026-05-07 10:53 | 11.11702 | 124.64004 | 21228 ft | 464 kts | 14° |
| 2026-05-07 10:53 | 11.14852 | 124.64436 | 21222 ft | 451 kts | 3° |
| 2026-05-07 10:54 | 11.17899 | 124.64198 | 21072 ft | 438 kts | 351° |
| 2026-05-07 10:54 | 11.20768 | 124.63311 | 20905 ft | 424 kts | 339° |
| 2026-05-07 10:54 | 11.23322 | 124.61909 | 20694 ft | 412 kts | 328° |
| 2026-05-07 10:54 | 11.25539 | 124.60085 | 20184 ft | 409 kts | 317° |
| 2026-05-07 10:55 | 11.27372 | 124.57868 | 19585 ft | 408 kts | 306° |
| 2026-05-07 10:55 | 11.27613 | 124.57502 | 19502 ft | 407 kts | 304° |
| 2026-05-07 10:55 | 11.27665 | 124.57422 | 19454 ft | 407 kts | 304° |
| 2026-05-07 10:56 | 11.28208 | 124.56500 | 19141 ft | 406 kts | 300° |
| 2026-05-07 10:56 | 11.29325 | 124.53865 | 18304 ft | 405 kts | 288° |
| 2026-05-07 10:56 | 11.29930 | 124.51067 | 17514 ft | 405 kts | 277° |
| 2026-05-07 10:56 | 11.30025 | 124.48227 | 16831 ft | 398 kts | 266° |
| 2026-05-07 10:57 | 11.29626 | 124.45453 | 16002 ft | 394 kts | 256° |
| 2026-05-07 10:57 | 11.28735 | 124.42820 | 15281 ft | 392 kts | 244° |
| 2026-05-07 10:57 | 11.27403 | 124.40415 | 14788 ft | 387 kts | 234° |
| 2026-05-07 10:57 | 11.25707 | 124.38312 | 14259 ft | 383 kts | 224° |
| 2026-05-07 10:58 | 11.23696 | 124.36566 | 13744 ft | 378 kts | 213° |
| 2026-05-07 10:58 | 11.21448 | 124.35222 | 13192 ft | 372 kts | 202° |
| 2026-05-07 10:58 | 11.19044 | 124.34304 | 12662 ft | 366 kts | 192° |
| 2026-05-07 10:58 | 11.16566 | 124.33820 | 12135 ft | 359 kts | 182° |
| 2026-05-07 10:59 | 11.14092 | 124.33763 | 11609 ft | 353 kts | 173° |
| 2026-05-07 10:59 | 11.11674 | 124.33939 | 10907 ft | 355 kts | 173° |
| 2026-05-07 10:59 | 11.09176 | 124.34050 | 10095 ft | 363 kts | 179° |
| 2026-05-07 10:59 | 11.06727 | 124.33680 | 9788 ft | 348 kts | 191° |
| 2026-05-07 11:00 | 11.04519 | 124.32858 | 9579 ft | 330 kts | 201° |
| 2026-05-07 11:00 | 11.02494 | 124.31905 | 9423 ft | 313 kts | 201° |
| 2026-05-07 11:00 | 11.00531 | 124.30996 | 9107 ft | 307 kts | 201° |
| 2026-05-07 11:00 | 10.98593 | 124.30102 | 8707 ft | 304 kts | 201° |
| 2026-05-07 11:01 | 10.96668 | 124.29212 | 8304 ft | 302 kts | 201° |
| 2026-05-07 11:01 | 10.94772 | 124.28332 | 7905 ft | 301 kts | 201° |
| 2026-05-07 11:01 | 10.92877 | 124.27449 | 7520 ft | 298 kts | 201° |
| 2026-05-07 11:01 | 10.91019 | 124.26583 | 7148 ft | 296 kts | 201° |
| 2026-05-07 11:02 | 10.89159 | 124.25716 | 6745 ft | 295 kts | 201° |
| 2026-05-07 11:02 | 10.87286 | 124.24843 | 6377 ft | 293 kts | 201° |
| 2026-05-07 11:02 | 10.85440 | 124.23983 | 5995 ft | 291 kts | 201° |
| 2026-05-07 11:02 | 10.83605 | 124.23128 | 5597 ft | 289 kts | 201° |
| 2026-05-07 11:03 | 10.81773 | 124.22274 | 5198 ft | 288 kts | 201° |
| 2026-05-07 11:03 | 10.79955 | 124.21427 | 4816 ft | 287 kts | 201° |
| 2026-05-07 11:03 | 10.78140 | 124.20582 | 4408 ft | 286 kts | 201° |
| 2026-05-07 11:03 | 10.76377 | 124.19759 | 4202 ft | 278 kts | 201° |
| 2026-05-07 11:04 | 10.74618 | 124.18927 | 4087 ft | 282 kts | 205° |
| 2026-05-07 11:04 | 10.73119 | 124.17643 | 3922 ft | 285 kts | 232° |
| 2026-05-07 11:04 | 10.72269 | 124.15815 | 3843 ft | 288 kts | 251° |
| 2026-05-07 11:04 | 10.71694 | 124.13860 | 3835 ft | 288 kts | 253° |
| 2026-05-07 11:05 | 10.71158 | 124.11903 | 3840 ft | 288 kts | 252° |
| 2026-05-07 11:05 | 10.70365 | 124.10039 | 3839 ft | 287 kts | 243° |
| 2026-05-07 11:05 | 10.69501 | 124.08209 | 3839 ft | 287 kts | 243° |
| 2026-05-07 11:05 | 10.68644 | 124.06406 | 3842 ft | 286 kts | 242° |
| 2026-05-07 11:06 | 10.67769 | 124.04577 | 3845 ft | 288 kts | 242° |
| 2026-05-07 11:06 | 10.66891 | 124.02749 | 3841 ft | 287 kts | 242° |
| 2026-05-07 11:06 | 10.66013 | 124.00922 | 3843 ft | 288 kts | 242° |
| 2026-05-07 11:06 | 10.65133 | 123.99096 | 3844 ft | 287 kts | 242° |
| 2026-05-07 11:07 | 10.64259 | 123.97283 | 3851 ft | 284 kts | 243° |
| 2026-05-07 11:07 | 10.63392 | 123.95475 | 3843 ft | 287 kts | 243° |
| 2026-05-07 11:07 | 10.62508 | 123.93639 | 3851 ft | 288 kts | 241° |
| 2026-05-07 11:07 | 10.61627 | 123.91837 | 3846 ft | 286 kts | 243° |
| 2026-05-07 11:08 | 10.60732 | 123.90001 | 3844 ft | 290 kts | 242° |
| 2026-05-07 11:08 | 10.59861 | 123.88177 | 3836 ft | 286 kts | 243° |
| 2026-05-07 11:08 | 10.58837 | 123.86442 | 3846 ft | 288 kts | 230° |
| 2026-05-07 11:08 | 10.57529 | 123.84976 | 3840 ft | 282 kts | 220° |
| 2026-05-07 11:09 | 10.56096 | 123.83579 | 3856 ft | 286 kts | 221° |
| 2026-05-07 11:09 | 10.54662 | 123.82184 | 3853 ft | 285 kts | 220° |
| 2026-05-07 11:09 | 10.53243 | 123.80797 | 3849 ft | 282 kts | 221° |
| 2026-05-07 11:09 | 10.51824 | 123.79411 | 3847 ft | 284 kts | 221° |
| 2026-05-07 11:10 | 10.50404 | 123.78020 | 3859 ft | 284 kts | 221° |
| 2026-05-07 11:10 | 10.49000 | 123.76648 | 3853 ft | 283 kts | 221° |
| 2026-05-07 11:10 | 10.47567 | 123.75234 | 3848 ft | 285 kts | 221° |
| 2026-05-07 11:10 | 10.46172 | 123.73848 | 3848 ft | 281 kts | 222° |
| 2026-05-07 11:11 | 10.44769 | 123.72458 | 3856 ft | 285 kts | 221° |
| 2026-05-07 11:11 | 10.43339 | 123.71062 | 3845 ft | 283 kts | 221° |
| 2026-05-07 11:11 | 10.41927 | 123.69677 | 3851 ft | 284 kts | 222° |
| 2026-05-07 11:11 | 10.40502 | 123.68273 | 3847 ft | 284 kts | 221° |
| 2026-05-07 11:12 | 10.39084 | 123.66883 | 3844 ft | 283 kts | 221° |
| 2026-05-07 11:12 | 10.37658 | 123.65488 | 3852 ft | 284 kts | 221° |
| 2026-05-07 11:12 | 10.36090 | 123.64295 | 3854 ft | 282 kts | 200° |
| 2026-05-07 11:12 | 10.34242 | 123.63916 | 3852 ft | 271 kts | 173° |
| 2026-05-07 11:13 | 10.32446 | 123.64440 | 3853 ft | 267 kts | 145° |
| 2026-05-07 11:13 | 10.31048 | 123.65647 | 3845 ft | 265 kts | 130° |
| 2026-05-07 11:13 | 10.29790 | 123.67020 | 3838 ft | 261 kts | 129° |
| 2026-05-07 11:13 | 10.28592 | 123.68355 | 3839 ft | 255 kts | 130° |
| 2026-05-07 11:14 | 10.27363 | 123.69687 | 3841 ft | 260 kts | 130° |
| 2026-05-07 11:14 | 10.26103 | 123.71005 | 3842 ft | 259 kts | 131° |
| 2026-05-07 11:14 | 10.24838 | 123.72302 | 3839 ft | 259 kts | 131° |
| 2026-05-07 11:14 | 10.23567 | 123.73588 | 3844 ft | 259 kts | 132° |
| 2026-05-07 11:15 | 10.22291 | 123.74865 | 3871 ft | 263 kts | 132° |
| 2026-05-07 11:15 | 10.20979 | 123.76185 | 3855 ft | 266 kts | 132° |
| 2026-05-07 11:15 | 10.19680 | 123.77507 | 3707 ft | 262 kts | 132° |
| 2026-05-07 11:15 | 10.18389 | 123.78824 | 3406 ft | 260 kts | 131° |
| 2026-05-07 11:16 | 10.17147 | 123.80100 | 3305 ft | 247 kts | 128° |
| 2026-05-07 11:16 | 10.16399 | 123.81582 | 3206 ft | 230 kts | 99° |
| 2026-05-07 11:16 | 10.16482 | 123.83136 | 3114 ft | 216 kts | 71° |
| 2026-05-07 11:16 | 10.17229 | 123.84370 | 3019 ft | 205 kts | 46° |
| 2026-05-07 11:17 | 10.18214 | 123.85333 | 2981 ft | 186 kts | 46° |
| 2026-05-07 11:17 | 10.19101 | 123.86214 | 2850 ft | 171 kts | 47° |
| 2026-05-07 11:17 | 10.19911 | 123.87029 | 2764 ft | 157 kts | 47° |
| 2026-05-07 11:17 | 10.20657 | 123.87783 | 2684 ft | 145 kts | 47° |
| 2026-05-07 11:18 | 10.21335 | 123.88471 | 2637 ft | 129 kts | 47° |
| 2026-05-07 11:18 | 10.21956 | 123.89098 | 2403 ft | 126 kts | 47° |
| 2026-05-07 11:18 | 10.22593 | 123.89745 | 2068 ft | 132 kts | 46° |
| 2026-05-07 11:18 | 10.23249 | 123.90408 | 1780 ft | 134 kts | 45° |
| 2026-05-07 11:19 | 10.23910 | 123.91074 | 1498 ft | 134 kts | 45° |
| 2026-05-07 11:19 | 10.24559 | 123.91724 | 1320 ft | 133 kts | 45° |
| 2026-05-07 11:19 | 10.25230 | 123.92395 | 1134 ft | 135 kts | 45° |
| 2026-05-07 11:19 | 10.25902 | 123.93070 | 952 ft | 136 kts | 45° |
| 2026-05-07 11:20 | 10.26557 | 123.93727 | 784 ft | 133 kts | 45° |
| 2026-05-07 11:20 | 10.27221 | 123.94394 | 589 ft | 132 kts | 44° |
| 2026-05-07 11:20 | 10.27869 | 123.95052 | 439 ft | 132 kts | 45° |
| 2026-05-07 11:20 | 10.28523 | 123.95702 | 389 ft | 126 kts | 45° |
| 2026-05-07 11:21 | 10.29146 | 123.96336 | 247 ft | 125 kts | 43° |
| 2026-05-07 11:21 | 10.29772 | 123.96950 | 63 ft | 124 kts | 43° |
| 2026-05-07 11:21 | 10.30330 | 123.97514 | 36 ft | 84 kts | 45° |
| 2026-05-07 11:21 | 10.30587 | 123.97769 | 35 ft | 41 kts | 43° |
| 2026-05-07 11:22 | 10.30714 | 123.97863 | 33 ft | 7 kts | 332° |
| 2026-05-07 11:22 | 10.30801 | 123.97784 | 36 ft | 22 kts | 313° |
| 2026-05-07 11:22 | 10.30878 | 123.97710 | 37 ft | 22 kts | 338° |
| 2026-05-07 11:22 | 10.31022 | 123.97804 | 37 ft | 20 kts | 43° |
| 2026-05-07 11:23 | 10.31159 | 123.97942 | 38 ft | 34 kts | 45° |
| 2026-05-07 11:23 | 10.31276 | 123.97943 | 38 ft | 18 kts | 319° |
| 2026-05-07 11:23 | 10.31321 | 123.97889 | 38 ft | 7 kts | 275° |
| 2026-05-07 11:23 | 10.31288 | 123.97848 | 38 ft | 10 kts | 228° |
| 2026-05-07 11:24 | 10.31262 | 123.97774 | 38 ft | 0 kts | 259° |